createdAt,value
2022-11-28T00:04:15.852Z,4.34
2022-11-28T00:09:20.547Z,4.33
2022-11-28T00:14:24.661Z,4.29
2022-11-28T00:19:27.380Z,4.28
2022-11-28T00:24:30.235Z,4.28
2022-11-28T00:29:34.328Z,4.25
2022-11-28T00:34:37.088Z,4.25
2022-11-28T00:39:39.897Z,4.29
2022-11-28T00:44:44.439Z,4.29
2022-11-28T00:49:47.360Z,4.31
2022-11-28T00:54:50.179Z,4.26
2022-11-28T00:59:54.260Z,4.29
2022-11-28T01:04:57.018Z,4.27
2022-11-28T01:09:59.833Z,4.23
2022-11-28T01:15:05.036Z,4.30
2022-11-28T01:20:09.657Z,4.32
2022-11-28T01:25:12.492Z,4.27
2022-11-28T01:30:16.865Z,4.29
2022-11-28T01:35:19.785Z,4.26
2022-11-28T01:40:22.933Z,4.22
2022-11-28T01:45:30.288Z,4.19
2022-11-28T01:50:36.000Z,4.19
2022-11-28T01:55:43.709Z,4.13
2022-11-28T02:00:49.072Z,4.17
2022-11-28T02:05:52.886Z,4.19
2022-11-28T02:11:14.551Z,4.19
2022-11-28T02:16:35.908Z,4.14
2022-11-28T02:21:57.465Z,4.20
2022-11-28T02:27:20.707Z,4.16
2022-11-28T02:32:37.692Z,4.03
2022-11-28T02:37:45.781Z,4.06
2022-11-28T02:43:00.604Z,4.05
2022-11-28T02:48:08.848Z,4.16
2022-11-28T02:53:16.489Z,4.16
2022-11-28T02:58:19.420Z,4.18
2022-11-28T03:03:40.988Z,4.14
2022-11-28T03:08:56.214Z,4.11
2022-11-28T03:14:08.580Z,4.11
2022-11-28T03:19:21.478Z,4.01
2022-11-28T03:24:33.237Z,4.01
2022-11-28T03:29:41.951Z,4.03
2022-11-28T03:34:50.869Z,4.07
2022-11-28T03:40:00.145Z,4.04
2022-11-28T03:45:09.346Z,3.91
2022-11-28T03:50:19.761Z,3.87
2022-11-28T03:55:26.587Z,3.92
2022-11-28T04:00:30.932Z,3.91
2022-11-28T04:05:42.874Z,3.91
2022-11-28T04:10:51.644Z,3.87
2022-11-28T04:16:00.361Z,3.85
2022-11-28T04:21:11.399Z,3.92
2022-11-28T04:26:18.676Z,3.98
2022-11-28T04:31:24.699Z,3.96
2022-11-28T04:36:31.283Z,3.99
2022-11-28T04:41:37.502Z,3.95
2022-11-28T04:46:44.361Z,3.86
2022-11-28T04:51:55.148Z,3.94
2022-11-28T04:57:03.057Z,3.90
2022-11-28T05:02:07.181Z,3.88
2022-11-28T05:07:11.719Z,3.92
2022-11-28T05:12:14.500Z,3.95
2022-11-28T05:17:17.354Z,3.93
2022-11-28T05:22:21.447Z,3.94
2022-11-28T05:27:24.270Z,3.96
2022-11-28T05:32:29.726Z,3.98
2022-11-28T05:37:33.955Z,3.94
2022-11-28T05:42:37.121Z,3.93
2022-11-28T05:47:39.901Z,3.93
2022-11-28T05:52:44.158Z,3.94
2022-11-28T05:57:47.118Z,3.94
2022-11-28T06:02:50.014Z,3.95
2022-11-28T06:07:54.378Z,3.96
2022-11-28T06:12:57.305Z,3.92
2022-11-28T06:18:00.111Z,3.89
2022-11-28T06:23:04.226Z,3.88
2022-11-28T06:28:07.184Z,3.89
2022-11-28T06:33:09.938Z,3.74
2022-11-28T06:38:14.477Z,3.73
2022-11-28T06:43:17.541Z,3.71
2022-11-28T06:48:20.589Z,3.68
2022-11-28T06:53:28.669Z,3.63
2022-11-28T06:58:34.551Z,3.66
2022-11-28T07:03:37.515Z,3.66
2022-11-28T07:08:41.987Z,3.64
2022-11-28T07:13:46.694Z,3.59
2022-11-28T07:18:50.274Z,3.60
2022-11-28T07:23:55.584Z,3.62
2022-11-28T07:28:59.872Z,3.70
2022-11-28T07:34:04.132Z,3.68
2022-11-28T07:39:09.853Z,3.73
2022-11-28T07:44:13.102Z,3.77
2022-11-28T07:49:16.588Z,3.80
2022-11-28T07:54:20.878Z,3.88
2022-11-28T07:59:23.782Z,3.92
2022-11-28T08:04:27.611Z,4.03
2022-11-28T08:09:34.061Z,3.95
2022-11-28T08:14:37.568Z,4.04
2022-11-28T08:19:40.729Z,4.13
2022-11-28T08:24:45.322Z,4.19
2022-11-28T08:29:52.207Z,4.26
2022-11-28T08:34:56.373Z,4.21
2022-11-28T08:40:00.593Z,4.31
2022-11-28T08:45:04.157Z,4.40
2022-11-28T08:50:09.298Z,4.34
2022-11-28T08:55:18.282Z,4.40
2022-11-28T09:00:26.072Z,4.61
2022-11-28T09:05:30.466Z,4.59
2022-11-28T09:10:36.994Z,4.65
2022-11-28T09:15:41.286Z,4.79
2022-11-28T09:20:43.993Z,4.84
2022-11-28T09:25:50.949Z,4.84
2022-11-28T09:31:01.468Z,4.91
2022-11-28T09:36:08.714Z,4.94
2022-11-28T09:41:39.606Z,5.05
2022-11-28T09:46:43.844Z,4.97
2022-11-28T09:51:55.927Z,4.99
2022-11-28T09:57:01.525Z,5.15
2022-11-28T10:02:19.912Z,5.36
2022-11-28T10:07:31.054Z,5.45
2022-11-28T10:12:43.387Z,5.38
2022-11-28T10:17:54.132Z,5.47
2022-11-28T10:23:00.810Z,5.41
2022-11-28T10:28:07.962Z,5.54
2022-11-28T10:33:25.188Z,5.46
2022-11-28T10:38:30.171Z,5.43
2022-11-28T10:43:44.689Z,5.64
2022-11-28T10:48:51.521Z,5.69
2022-11-28T10:54:06.906Z,5.64
2022-11-28T10:59:22.215Z,5.78
2022-11-28T11:04:28.193Z,5.86
2022-11-28T11:09:30.952Z,5.82
2022-11-28T11:14:39.853Z,5.92
2022-11-28T11:19:42.859Z,5.86
2022-11-28T11:24:46.368Z,5.86
2022-11-28T11:29:52.445Z,5.79
2022-11-28T11:34:58.008Z,5.76
2022-11-28T11:40:02.619Z,5.79
2022-11-28T11:45:29.468Z,5.53
2022-11-28T11:50:33.117Z,5.73
2022-11-28T11:55:44.600Z,5.79
2022-11-28T12:00:48.968Z,5.82
2022-11-28T12:11:24.463Z,5.81
2022-11-28T12:16:48.859Z,5.81
2022-11-28T12:22:07.893Z,5.94
2022-11-28T12:27:26.081Z,6.00
2022-11-28T12:32:43.277Z,6.06
2022-11-28T12:38:11.695Z,6.04
2022-11-28T12:43:26.912Z,5.98
2022-11-28T12:49:00.839Z,6.02
2022-11-28T12:54:18.456Z,6.04
2022-11-28T12:59:27.017Z,5.96
2022-11-28T13:04:48.261Z,6.03
2022-11-28T13:10:01.568Z,5.93
2022-11-28T13:15:15.248Z,5.94
2022-11-28T13:20:26.351Z,6.09
2022-11-28T13:25:42.833Z,6.05
2022-11-28T13:30:52.756Z,6.04
2022-11-28T13:35:59.007Z,6.09
2022-11-28T13:41:22.860Z,6.01
2022-11-28T13:46:35.083Z,5.98
2022-11-28T13:51:39.325Z,6.11
2022-11-28T13:56:42.251Z,6.13
2022-11-28T14:01:47.005Z,6.17
2022-11-28T14:06:58.932Z,6.16
2022-11-28T14:12:17.473Z,6.03
2022-11-28T14:17:37.182Z,6.18
2022-11-28T14:22:54.251Z,6.14
2022-11-28T14:28:00.749Z,6.17
2022-11-28T14:33:07.316Z,6.13
2022-11-28T14:38:42.718Z,6.11
2022-11-28T14:43:49.635Z,6.18
2022-11-28T14:49:18.869Z,6.14
2022-11-28T14:54:25.154Z,6.07
2022-11-28T14:59:34.352Z,5.99
2022-11-28T15:04:54.793Z,6.00
2022-11-28T15:10:09.199Z,6.01
2022-11-28T15:15:17.168Z,6.02
2022-11-28T15:20:27.869Z,5.98
2022-11-28T15:25:37.148Z,5.97
2022-11-28T15:30:47.510Z,5.98
2022-11-28T15:35:58.184Z,5.97
2022-11-28T15:41:01.705Z,5.97
2022-11-28T15:46:08.206Z,5.89
2022-11-28T15:51:26.434Z,5.97
2022-11-28T15:56:29.442Z,5.98
2022-11-28T16:01:34.547Z,5.98
2022-11-28T16:06:41.359Z,5.97
2022-11-28T16:11:46.037Z,5.94
2022-11-28T16:16:50.484Z,5.92
2022-11-28T16:21:55.731Z,5.92
2022-11-28T16:27:00.866Z,5.93
2022-11-28T16:32:10.345Z,5.92
2022-11-28T16:37:13.650Z,5.94
2022-11-28T16:42:20.195Z,5.96
2022-11-28T16:47:30.309Z,5.96
2022-11-28T16:52:46.581Z,6.00
2022-11-28T16:57:56.037Z,6.00
2022-11-28T17:03:00.226Z,6.05
2022-11-28T17:08:03.034Z,6.03
2022-11-28T17:13:05.815Z,6.08
2022-11-28T17:18:09.991Z,6.10
2022-11-28T17:23:15.020Z,6.10
2022-11-28T17:28:22.352Z,6.13
2022-11-28T17:33:28.493Z,6.13
2022-11-28T17:38:33.658Z,6.14
2022-11-28T17:43:39.220Z,6.17
2022-11-28T17:48:44.112Z,6.17
2022-11-28T17:53:47.315Z,6.16
2022-11-28T17:58:50.358Z,6.15
2022-11-28T18:03:55.517Z,6.15
2022-11-28T18:09:00.011Z,6.15
2022-11-28T18:14:03.279Z,6.18
2022-11-28T18:19:07.564Z,6.20
2022-11-28T18:24:10.710Z,6.21
2022-11-28T18:29:13.581Z,6.24
2022-11-28T18:34:18.929Z,6.21
2022-11-28T18:39:21.648Z,6.24
2022-11-28T18:44:25.249Z,6.28
2022-11-28T18:49:30.503Z,6.31
2022-11-28T18:54:33.443Z,6.29
2022-11-28T18:59:36.370Z,6.29
2022-11-28T19:04:40.902Z,6.28
2022-11-28T19:09:45.162Z,6.30
2022-11-28T19:14:48.179Z,6.32
2022-11-28T19:19:53.091Z,6.33
2022-11-28T19:24:55.925Z,6.30
2022-11-28T19:29:58.799Z,6.32
2022-11-28T19:35:02.988Z,6.33
2022-11-28T19:40:07.211Z,6.33
2022-11-28T19:45:11.265Z,6.31
2022-11-28T19:50:15.833Z,6.32
2022-11-28T19:55:18.610Z,6.35
2022-11-28T20:00:22.135Z,6.35
2022-11-28T20:05:26.444Z,6.36
2022-11-28T20:10:29.863Z,6.34
2022-11-28T20:15:36.203Z,6.36
2022-11-28T20:20:41.498Z,6.33
2022-11-28T20:25:44.839Z,6.36
2022-11-28T20:30:47.766Z,6.32
2022-11-28T20:35:59.735Z,6.31
2022-11-28T20:41:03.291Z,6.31
2022-11-28T20:46:07.606Z,6.29
2022-11-28T20:51:13.186Z,6.32
2022-11-28T20:56:17.803Z,6.31
2022-11-28T21:01:22.666Z,6.29
2022-11-28T21:06:27.042Z,6.31
2022-11-28T21:11:55.845Z,6.31
2022-11-28T21:16:52.857Z,6.29
2022-11-28T21:21:57.108Z,6.31
2022-11-28T21:26:59.965Z,6.33
2022-11-28T21:32:02.845Z,6.33
2022-11-28T21:37:07.122Z,6.34
2022-11-28T21:42:09.951Z,6.35
2022-11-28T21:47:13.022Z,6.34
2022-11-28T21:52:23.343Z,6.36
2022-11-28T21:57:26.172Z,6.38
2022-11-28T22:02:30.991Z,6.36
2022-11-28T22:07:37.567Z,6.39
2022-11-28T22:12:40.402Z,6.41
2022-11-28T22:17:43.390Z,6.42
2022-11-28T22:22:48.829Z,6.43
2022-11-28T22:27:51.680Z,6.41
2022-11-28T22:32:54.871Z,6.38
2022-11-28T22:37:59.097Z,6.35
2022-11-28T22:43:01.876Z,6.37
2022-11-28T22:48:05.306Z,6.35
2022-11-28T22:53:09.671Z,6.38
2022-11-28T22:58:12.578Z,6.39
2022-11-28T23:03:15.647Z,6.36
2022-11-28T23:08:20.477Z,6.37
2022-11-28T23:13:23.906Z,6.36
2022-11-28T23:18:26.885Z,6.38
2022-11-28T23:23:32.870Z,6.38
2022-11-28T23:28:37.173Z,6.36
2022-11-28T23:33:40.933Z,6.35
2022-11-28T23:38:47.903Z,6.34
2022-11-28T23:43:50.953Z,6.33
2022-11-28T23:48:53.911Z,6.32
2022-11-28T23:53:58.176Z,6.33
2022-11-28T23:59:02.360Z,6.34
